sensor_id;sensor_type;location;lat;lon;timestamp;temperature;humidity
29237;DHT22;16266;50.866;4.398;2023-02-15T00:01:36;7.20;99.90
29237;DHT22;16266;50.866;4.398;2023-02-15T00:04:03;7.10;99.90
29237;DHT22;16266;50.866;4.398;2023-02-15T00:06:30;7.10;99.90
29237;DHT22;16266;50.866;4.398;2023-02-15T00:08:57;7.10;99.90
29237;DHT22;16266;50.866;4.398;2023-02-15T00:11:23;7.10;99.90
29237;DHT22;16266;50.866;4.398;2023-02-15T00:14:28;7.10;99.90
29237;DHT22;16266;50.866;4.398;2023-02-15T00:16:55;7.10;99.90
29237;DHT22;16266;50.866;4.398;2023-02-15T00:19:21;7.10;99.90
29237;DHT22;16266;50.866;4.398;2023-02-15T00:21:47;7.10;99.90
29237;DHT22;16266;50.866;4.398;2023-02-15T00:24:15;7.10;99.90
29237;DHT22;16266;50.866;4.398;2023-02-15T00:26:43;6.90;99.90
29237;DHT22;16266;50.866;4.398;2023-02-15T00:29:10;6.90;99.90
29237;DHT22;16266;50.866;4.398;2023-02-15T00:31:36;7.00;99.90
29237;DHT22;16266;50.866;4.398;2023-02-15T00:34:13;6.90;99.90
29237;DHT22;16266;50.866;4.398;2023-02-15T00:36:40;6.90;99.90
29237;DHT22;16266;50.866;4.398;2023-02-15T00:39:06;6.90;99.90
29237;DHT22;16266;50.866;4.398;2023-02-15T00:41:32;6.90;99.90
29237;DHT22;16266;50.866;4.398;2023-02-15T00:43:58;6.90;99.90
29237;DHT22;16266;50.866;4.398;2023-02-15T00:46:24;6.90;99.90
29237;DHT22;16266;50.866;4.398;2023-02-15T00:48:50;6.90;99.90
29237;DHT22;16266;50.866;4.398;2023-02-15T00:51:15;6.80;99.90
29237;DHT22;16266;50.866;4.398;2023-02-15T00:53:42;6.80;99.90
29237;DHT22;16266;50.866;4.398;2023-02-15T00:56:09;6.80;99.90
29237;DHT22;16266;50.866;4.398;2023-02-15T00:58:35;6.80;99.90
29237;DHT22;16266;50.866;4.398;2023-02-15T01:01:06;6.80;99.90
29237;DHT22;16266;50.866;4.398;2023-02-15T01:03:32;6.90;99.90
29237;DHT22;16266;50.866;4.398;2023-02-15T01:05:58;6.80;99.90
29237;DHT22;16266;50.866;4.398;2023-02-15T01:08:24;6.70;99.90
29237;DHT22;16266;50.866;4.398;2023-02-15T01:10:50;6.70;99.90
29237;DHT22;16266;50.866;4.398;2023-02-15T01:13:16;6.60;99.90
29237;DHT22;16266;50.866;4.398;2023-02-15T01:15:43;6.60;99.90
29237;DHT22;16266;50.866;4.398;2023-02-15T01:18:10;6.70;99.90
29237;DHT22;16266;50.866;4.398;2023-02-15T01:20:37;6.70;99.90
29237;DHT22;16266;50.866;4.398;2023-02-15T01:23:05;6.60;99.90
29237;DHT22;16266;50.866;4.398;2023-02-15T01:25:33;6.50;99.90
29237;DHT22;16266;50.866;4.398;2023-02-15T01:27:59;6.30;99.90
29237;DHT22;16266;50.866;4.398;2023-02-15T01:30:25;6.30;99.90
29237;DHT22;16266;50.866;4.398;2023-02-15T01:32:51;6.30;99.90
29237;DHT22;16266;50.866;4.398;2023-02-15T01:35:17;6.30;99.90
29237;DHT22;16266;50.866;4.398;2023-02-15T01:37:42;6.20;99.90
29237;DHT22;16266;50.866;4.398;2023-02-15T01:40:12;6.40;99.90
29237;DHT22;16266;50.866;4.398;2023-02-15T01:42:39;6.40;99.90
29237;DHT22;16266;50.866;4.398;2023-02-15T01:45:22;6.30;99.90
29237;DHT22;16266;50.866;4.398;2023-02-15T01:47:52;6.20;99.90
29237;DHT22;16266;50.866;4.398;2023-02-15T01:52:55;5.90;99.90
29237;DHT22;16266;50.866;4.398;2023-02-15T01:55:25;5.80;99.90
29237;DHT22;16266;50.866;4.398;2023-02-15T01:57:52;5.90;99.90
29237;DHT22;16266;50.866;4.398;2023-02-15T02:00:18;5.90;99.90
29237;DHT22;16266;50.866;4.398;2023-02-15T02:02:45;6.00;99.90
29237;DHT22;16266;50.866;4.398;2023-02-15T02:05:12;6.00;99.90
29237;DHT22;16266;50.866;4.398;2023-02-15T02:07:41;6.00;99.90
29237;DHT22;16266;50.866;4.398;2023-02-15T02:10:10;6.00;99.90
29237;DHT22;16266;50.866;4.398;2023-02-15T02:12:37;6.00;99.90
29237;DHT22;16266;50.866;4.398;2023-02-15T02:15:05;5.90;99.90
29237;DHT22;16266;50.866;4.398;2023-02-15T02:18:26;5.80;99.90
29237;DHT22;16266;50.866;4.398;2023-02-15T02:29:53;5.50;99.90
29237;DHT22;16266;50.866;4.398;2023-02-15T02:33:18;5.50;99.90
29237;DHT22;16266;50.866;4.398;2023-02-15T02:35:52;5.60;99.90
29237;DHT22;16266;50.866;4.398;2023-02-15T02:38:42;5.70;99.90
29237;DHT22;16266;50.866;4.398;2023-02-15T02:44:16;5.60;99.90
29237;DHT22;16266;50.866;4.398;2023-02-15T02:47:14;5.60;99.90
29237;DHT22;16266;50.866;4.398;2023-02-15T02:49:42;5.60;99.90
29237;DHT22;16266;50.866;4.398;2023-02-15T02:52:48;5.60;99.90
29237;DHT22;16266;50.866;4.398;2023-02-15T03:00:23;5.60;99.90
29237;DHT22;16266;50.866;4.398;2023-02-15T03:02:55;5.60;99.90
29237;DHT22;16266;50.866;4.398;2023-02-15T03:05:25;5.50;99.90
29237;DHT22;16266;50.866;4.398;2023-02-15T03:07:53;5.50;99.90
29237;DHT22;16266;50.866;4.398;2023-02-15T03:10:22;5.50;99.90
29237;DHT22;16266;50.866;4.398;2023-02-15T03:12:48;5.50;99.90
29237;DHT22;16266;50.866;4.398;2023-02-15T03:15:25;5.50;99.90
29237;DHT22;16266;50.866;4.398;2023-02-15T03:18:12;5.40;99.90
29237;DHT22;16266;50.866;4.398;2023-02-15T03:20:39;5.40;99.90
29237;DHT22;16266;50.866;4.398;2023-02-15T03:23:13;5.30;99.90
29237;DHT22;16266;50.866;4.398;2023-02-15T03:26:00;5.40;99.90
29237;DHT22;16266;50.866;4.398;2023-02-15T03:28:44;5.40;99.90
29237;DHT22;16266;50.866;4.398;2023-02-15T03:31:15;5.40;99.90
29237;DHT22;16266;50.866;4.398;2023-02-15T03:33:50;5.40;99.90
29237;DHT22;16266;50.866;4.398;2023-02-15T03:36:23;5.40;99.90
29237;DHT22;16266;50.866;4.398;2023-02-15T03:41:34;5.30;99.90
29237;DHT22;16266;50.866;4.398;2023-02-15T03:44:09;5.40;99.90
29237;DHT22;16266;50.866;4.398;2023-02-15T03:46:47;5.30;99.90
29237;DHT22;16266;50.866;4.398;2023-02-15T03:49:17;5.30;99.90
29237;DHT22;16266;50.866;4.398;2023-02-15T03:51:48;5.20;99.90
29237;DHT22;16266;50.866;4.398;2023-02-15T03:54:35;5.20;99.90
29237;DHT22;16266;50.866;4.398;2023-02-15T03:57:28;5.10;99.90
29237;DHT22;16266;50.866;4.398;2023-02-15T04:00:14;5.10;99.90
29237;DHT22;16266;50.866;4.398;2023-02-15T04:05:42;5.00;99.90
29237;DHT22;16266;50.866;4.398;2023-02-15T04:08:08;5.10;99.90
29237;DHT22;16266;50.866;4.398;2023-02-15T04:10:34;5.10;99.90
29237;DHT22;16266;50.866;4.398;2023-02-15T04:13:20;5.10;99.90
29237;DHT22;16266;50.866;4.398;2023-02-15T04:15:45;5.10;99.90
29237;DHT22;16266;50.866;4.398;2023-02-15T04:18:38;5.10;99.90
29237;DHT22;16266;50.866;4.398;2023-02-15T04:21:23;5.10;99.90
29237;DHT22;16266;50.866;4.398;2023-02-15T04:24:09;5.10;99.90
29237;DHT22;16266;50.866;4.398;2023-02-15T04:26:54;5.10;99.90
29237;DHT22;16266;50.866;4.398;2023-02-15T04:29:20;5.10;99.90
29237;DHT22;16266;50.866;4.398;2023-02-15T04:31:46;5.10;99.90
29237;DHT22;16266;50.866;4.398;2023-02-15T04:34:13;5.20;99.90
29237;DHT22;16266;50.866;4.398;2023-02-15T04:36:39;5.30;99.90
29237;DHT22;16266;50.866;4.398;2023-02-15T04:39:06;5.30;99.90
29237;DHT22;16266;50.866;4.398;2023-02-15T04:41:32;5.40;99.90
29237;DHT22;16266;50.866;4.398;2023-02-15T04:43:58;5.40;99.90
29237;DHT22;16266;50.866;4.398;2023-02-15T04:46:26;5.40;99.90
29237;DHT22;16266;50.866;4.398;2023-02-15T04:48:52;5.40;99.90
29237;DHT22;16266;50.866;4.398;2023-02-15T04:51:18;5.30;99.90
29237;DHT22;16266;50.866;4.398;2023-02-15T04:53:44;5.30;99.90
29237;DHT22;16266;50.866;4.398;2023-02-15T04:56:10;5.30;99.90
29237;DHT22;16266;50.866;4.398;2023-02-15T04:58:35;5.40;99.90
29237;DHT22;16266;50.866;4.398;2023-02-15T05:01:02;5.40;99.90
29237;DHT22;16266;50.866;4.398;2023-02-15T05:03:28;5.40;99.90
29237;DHT22;16266;50.866;4.398;2023-02-15T05:05:54;5.40;99.90
29237;DHT22;16266;50.866;4.398;2023-02-15T05:08:20;5.30;99.90
29237;DHT22;16266;50.866;4.398;2023-02-15T05:10:48;5.30;99.90
29237;DHT22;16266;50.866;4.398;2023-02-15T05:13:14;5.30;99.90
29237;DHT22;16266;50.866;4.398;2023-02-15T05:15:39;5.30;99.90
29237;DHT22;16266;50.866;4.398;2023-02-15T05:18:05;5.30;99.90
29237;DHT22;16266;50.866;4.398;2023-02-15T05:20:31;5.30;99.90
29237;DHT22;16266;50.866;4.398;2023-02-15T05:22:57;5.40;99.90
29237;DHT22;16266;50.866;4.398;2023-02-15T05:25:22;5.20;99.90
29237;DHT22;16266;50.866;4.398;2023-02-15T05:28:10;5.20;99.90
29237;DHT22;16266;50.866;4.398;2023-02-15T05:30:49;5.20;99.90
29237;DHT22;16266;50.866;4.398;2023-02-15T05:33:16;5.20;99.90
29237;DHT22;16266;50.866;4.398;2023-02-15T05:35:42;5.10;99.90
29237;DHT22;16266;50.866;4.398;2023-02-15T05:38:08;4.90;99.90
29237;DHT22;16266;50.866;4.398;2023-02-15T05:40:34;4.70;99.90
29237;DHT22;16266;50.866;4.398;2023-02-15T05:42:59;4.70;99.90
29237;DHT22;16266;50.866;4.398;2023-02-15T05:45:25;4.80;99.90
29237;DHT22;16266;50.866;4.398;2023-02-15T05:47:51;4.90;99.90
29237;DHT22;16266;50.866;4.398;2023-02-15T05:50:17;4.90;99.90
29237;DHT22;16266;50.866;4.398;2023-02-15T05:52:42;4.90;99.90
29237;DHT22;16266;50.866;4.398;2023-02-15T05:55:08;4.80;99.90
29237;DHT22;16266;50.866;4.398;2023-02-15T05:57:35;4.80;99.90
29237;DHT22;16266;50.866;4.398;2023-02-15T06:00:01;4.80;99.90
29237;DHT22;16266;50.866;4.398;2023-02-15T06:02:33;4.80;99.90
29237;DHT22;16266;50.866;4.398;2023-02-15T06:04:59;4.80;99.90
29237;DHT22;16266;50.866;4.398;2023-02-15T06:07:25;4.80;99.90
29237;DHT22;16266;50.866;4.398;2023-02-15T06:09:50;4.70;99.90
29237;DHT22;16266;50.866;4.398;2023-02-15T06:12:16;4.60;99.90
29237;DHT22;16266;50.866;4.398;2023-02-15T06:14:41;4.50;99.90
29237;DHT22;16266;50.866;4.398;2023-02-15T06:17:07;4.40;99.90
29237;DHT22;16266;50.866;4.398;2023-02-15T06:19:33;4.40;99.90
29237;DHT22;16266;50.866;4.398;2023-02-15T06:21:59;4.50;99.90
29237;DHT22;16266;50.866;4.398;2023-02-15T06:24:24;4.40;99.90
29237;DHT22;16266;50.866;4.398;2023-02-15T06:26:50;4.40;99.90
29237;DHT22;16266;50.866;4.398;2023-02-15T06:29:16;4.40;99.90
29237;DHT22;16266;50.866;4.398;2023-02-15T06:31:41;4.50;99.90
29237;DHT22;16266;50.866;4.398;2023-02-15T06:34:08;4.40;99.90
29237;DHT22;16266;50.866;4.398;2023-02-15T06:36:33;4.30;99.90
29237;DHT22;16266;50.866;4.398;2023-02-15T06:38:59;4.30;99.90
29237;DHT22;16266;50.866;4.398;2023-02-15T06:41:25;4.30;99.90
29237;DHT22;16266;50.866;4.398;2023-02-15T06:43:50;4.30;99.90
29237;DHT22;16266;50.866;4.398;2023-02-15T06:46:16;4.20;99.90
29237;DHT22;16266;50.866;4.398;2023-02-15T06:48:42;4.30;99.90
29237;DHT22;16266;50.866;4.398;2023-02-15T06:51:07;4.30;99.90
29237;DHT22;16266;50.866;4.398;2023-02-15T06:53:33;4.20;99.90
29237;DHT22;16266;50.866;4.398;2023-02-15T06:56:03;4.30;99.90
29237;DHT22;16266;50.866;4.398;2023-02-15T06:58:32;4.50;99.90
29237;DHT22;16266;50.866;4.398;2023-02-15T07:00:58;4.50;99.90
29237;DHT22;16266;50.866;4.398;2023-02-15T07:03:24;4.50;99.90
29237;DHT22;16266;50.866;4.398;2023-02-15T07:05:54;4.60;99.90
29237;DHT22;16266;50.866;4.398;2023-02-15T07:08:20;4.70;99.90
29237;DHT22;16266;50.866;4.398;2023-02-15T07:10:45;4.70;99.90
29237;DHT22;16266;50.866;4.398;2023-02-15T07:13:33;4.90;99.90
29237;DHT22;16266;50.866;4.398;2023-02-15T07:15:58;5.00;99.90
29237;DHT22;16266;50.866;4.398;2023-02-15T07:18:24;5.00;99.90
29237;DHT22;16266;50.866;4.398;2023-02-15T07:20:50;5.20;99.90
29237;DHT22;16266;50.866;4.398;2023-02-15T07:23:15;5.40;99.90
29237;DHT22;16266;50.866;4.398;2023-02-15T07:25:41;5.50;99.90
29237;DHT22;16266;50.866;4.398;2023-02-15T07:28:07;5.60;99.90
29237;DHT22;16266;50.866;4.398;2023-02-15T07:30:34;5.80;99.90
29237;DHT22;16266;50.866;4.398;2023-02-15T07:33:01;6.00;99.90
29237;DHT22;16266;50.866;4.398;2023-02-15T07:35:56;6.20;99.90
29237;DHT22;16266;50.866;4.398;2023-02-15T07:38:27;6.40;99.90
29237;DHT22;16266;50.866;4.398;2023-02-15T07:41:03;6.70;99.90
29237;DHT22;16266;50.866;4.398;2023-02-15T07:43:29;7.10;99.90
29237;DHT22;16266;50.866;4.398;2023-02-15T07:45:59;7.50;99.90
29237;DHT22;16266;50.866;4.398;2023-02-15T07:48:26;7.90;99.90
29237;DHT22;16266;50.866;4.398;2023-02-15T07:50:52;8.40;99.90
29237;DHT22;16266;50.866;4.398;2023-02-15T07:53:17;9.10;99.90
29237;DHT22;16266;50.866;4.398;2023-02-15T07:55:43;9.90;99.90
29237;DHT22;16266;50.866;4.398;2023-02-15T07:58:08;10.30;99.90
29237;DHT22;16266;50.866;4.398;2023-02-15T08:00:34;11.10;99.90
29237;DHT22;16266;50.866;4.398;2023-02-15T08:03:25;12.00;99.90
29237;DHT22;16266;50.866;4.398;2023-02-15T08:05:58;12.80;99.90
29237;DHT22;16266;50.866;4.398;2023-02-15T08:08:25;13.40;99.90
29237;DHT22;16266;50.866;4.398;2023-02-15T08:11:14;13.90;99.90
29237;DHT22;16266;50.866;4.398;2023-02-15T08:14:13;14.30;99.90
29237;DHT22;16266;50.866;4.398;2023-02-15T08:16:41;14.70;99.90
29237;DHT22;16266;50.866;4.398;2023-02-15T08:19:28;14.90;99.90
29237;DHT22;16266;50.866;4.398;2023-02-15T08:21:56;15.40;99.90
29237;DHT22;16266;50.866;4.398;2023-02-15T08:24:25;15.70;99.90
29237;DHT22;16266;50.866;4.398;2023-02-15T08:26:51;16.20;99.90
29237;DHT22;16266;50.866;4.398;2023-02-15T08:29:19;16.60;99.90
29237;DHT22;16266;50.866;4.398;2023-02-15T08:31:47;17.10;99.90
29237;DHT22;16266;50.866;4.398;2023-02-15T08:34:16;17.70;99.90
29237;DHT22;16266;50.866;4.398;2023-02-15T08:36:42;18.40;99.90
29237;DHT22;16266;50.866;4.398;2023-02-15T08:39:10;19.10;98.80
29237;DHT22;16266;50.866;4.398;2023-02-15T08:41:37;19.80;96.60
29237;DHT22;16266;50.866;4.398;2023-02-15T08:44:07;20.50;93.40
29237;DHT22;16266;50.866;4.398;2023-02-15T08:46:36;20.90;92.80
29237;DHT22;16266;50.866;4.398;2023-02-15T08:49:02;21.30;86.70
29237;DHT22;16266;50.866;4.398;2023-02-15T08:51:33;21.30;81.60
29237;DHT22;16266;50.866;4.398;2023-02-15T08:54:06;21.00;88.80
29237;DHT22;16266;50.866;4.398;2023-02-15T08:56:35;21.00;87.60
29237;DHT22;16266;50.866;4.398;2023-02-15T08:59:01;21.20;82.00
29237;DHT22;16266;50.866;4.398;2023-02-15T09:01:29;21.50;77.80
29237;DHT22;16266;50.866;4.398;2023-02-15T09:03:58;21.80;74.40
29237;DHT22;16266;50.866;4.398;2023-02-15T09:06:25;21.70;68.80
29237;DHT22;16266;50.866;4.398;2023-02-15T09:08:51;21.40;69.60
29237;DHT22;16266;50.866;4.398;2023-02-15T09:14:01;20.20;69.40
29237;DHT22;16266;50.866;4.398;2023-02-15T09:16:30;19.50;74.50
29237;DHT22;16266;50.866;4.398;2023-02-15T09:18:56;19.50;76.30
29237;DHT22;16266;50.866;4.398;2023-02-15T09:21:27;19.00;76.70
29237;DHT22;16266;50.866;4.398;2023-02-15T09:23:57;18.60;76.00
29237;DHT22;16266;50.866;4.398;2023-02-15T09:26:24;18.40;80.30
29237;DHT22;16266;50.866;4.398;2023-02-15T09:28:56;18.60;82.70
29237;DHT22;16266;50.866;4.398;2023-02-15T09:31:27;18.60;77.90
29237;DHT22;16266;50.866;4.398;2023-02-15T09:33:54;18.90;77.60
29237;DHT22;16266;50.866;4.398;2023-02-15T09:36:36;18.90;80.10
29237;DHT22;16266;50.866;4.398;2023-02-15T09:55:05;20.10;73.00
29237;DHT22;16266;50.866;4.398;2023-02-15T09:57:43;20.50;72.00
29237;DHT22;16266;50.866;4.398;2023-02-15T10:00:31;20.30;69.50
29237;DHT22;16266;50.866;4.398;2023-02-15T10:19:40;22.40;58.80
29237;DHT22;16266;50.866;4.398;2023-02-15T10:25:46;21.70;57.30
29237;DHT22;16266;50.866;4.398;2023-02-15T10:28:18;21.30;59.50
29237;DHT22;16266;50.866;4.398;2023-02-15T10:30:50;21.60;59.70
29237;DHT22;16266;50.866;4.398;2023-02-15T10:36:41;22.30;57.20
29237;DHT22;16266;50.866;4.398;2023-02-15T10:39:06;22.40;55.40
29237;DHT22;16266;50.866;4.398;2023-02-15T10:42:05;22.80;54.90
29237;DHT22;16266;50.866;4.398;2023-02-15T10:44:41;22.90;54.20
29237;DHT22;16266;50.866;4.398;2023-02-15T10:47:22;23.00;51.60
29237;DHT22;16266;50.866;4.398;2023-02-15T10:58:17;19.60;59.50
29237;DHT22;16266;50.866;4.398;2023-02-15T11:03:43;17.70;71.00
29237;DHT22;16266;50.866;4.398;2023-02-15T11:06:14;17.60;72.30
29237;DHT22;16266;50.866;4.398;2023-02-15T11:08:45;18.00;76.00
29237;DHT22;16266;50.866;4.398;2023-02-15T11:11:25;18.20;76.30
29237;DHT22;16266;50.866;4.398;2023-02-15T11:13:56;18.90;74.50
29237;DHT22;16266;50.866;4.398;2023-02-15T11:16:31;18.60;73.00
29237;DHT22;16266;50.866;4.398;2023-02-15T11:19:01;18.90;72.40
29237;DHT22;16266;50.866;4.398;2023-02-15T11:21:39;19.20;69.90
29237;DHT22;16266;50.866;4.398;2023-02-15T11:24:19;19.50;69.40
29237;DHT22;16266;50.866;4.398;2023-02-15T11:32:18;19.30;69.30
29237;DHT22;16266;50.866;4.398;2023-02-15T11:34:56;18.80;71.70
29237;DHT22;16266;50.866;4.398;2023-02-15T11:37:35;19.20;72.00
29237;DHT22;16266;50.866;4.398;2023-02-15T11:40:04;19.60;69.60
29237;DHT22;16266;50.866;4.398;2023-02-15T11:42:38;19.90;71.20
29237;DHT22;16266;50.866;4.398;2023-02-15T11:45:22;20.70;70.30
29237;DHT22;16266;50.866;4.398;2023-02-15T11:47:50;21.20;64.90
29237;DHT22;16266;50.866;4.398;2023-02-15T11:50:21;21.30;65.10
29237;DHT22;16266;50.866;4.398;2023-02-15T11:52:49;21.60;65.00
29237;DHT22;16266;50.866;4.398;2023-02-15T11:55:21;21.30;65.40
29237;DHT22;16266;50.866;4.398;2023-02-15T11:57:59;21.30;64.00
29237;DHT22;16266;50.866;4.398;2023-02-15T12:00:33;20.70;66.00
29237;DHT22;16266;50.866;4.398;2023-02-15T12:03:21;19.80;67.90
29237;DHT22;16266;50.866;4.398;2023-02-15T12:05:53;19.90;70.60
29237;DHT22;16266;50.866;4.398;2023-02-15T12:08:20;19.70;69.70
29237;DHT22;16266;50.866;4.398;2023-02-15T12:10:56;19.80;70.60
29237;DHT22;16266;50.866;4.398;2023-02-15T12:13:25;19.70;70.20
29237;DHT22;16266;50.866;4.398;2023-02-15T12:15:54;19.70;70.50
29237;DHT22;16266;50.866;4.398;2023-02-15T12:18:31;19.20;71.70
29237;DHT22;16266;50.866;4.398;2023-02-15T12:21:01;19.00;75.90
29237;DHT22;16266;50.866;4.398;2023-02-15T12:23:29;18.50;77.00
29237;DHT22;16266;50.866;4.398;2023-02-15T12:25:56;17.80;80.60
29237;DHT22;16266;50.866;4.398;2023-02-15T12:28:41;17.40;83.20
29237;DHT22;16266;50.866;4.398;2023-02-15T12:31:27;17.60;85.40
29237;DHT22;16266;50.866;4.398;2023-02-15T12:33:55;17.60;88.20
29237;DHT22;16266;50.866;4.398;2023-02-15T12:36:25;18.00;85.80
29237;DHT22;16266;50.866;4.398;2023-02-15T12:39:05;18.20;84.60
29237;DHT22;16266;50.866;4.398;2023-02-15T12:41:46;18.70;86.00
29237;DHT22;16266;50.866;4.398;2023-02-15T12:44:24;19.40;81.80
29237;DHT22;16266;50.866;4.398;2023-02-15T12:49:25;20.50;75.80
29237;DHT22;16266;50.866;4.398;2023-02-15T12:51:57;20.90;71.30
29237;DHT22;16266;50.866;4.398;2023-02-15T12:54:34;20.70;72.20
29237;DHT22;16266;50.866;4.398;2023-02-15T12:59:49;20.00;72.70
29237;DHT22;16266;50.866;4.398;2023-02-15T13:02:22;19.60;75.40
29237;DHT22;16266;50.866;4.398;2023-02-15T13:04:49;19.30;76.90
29237;DHT22;16266;50.866;4.398;2023-02-15T13:07:15;18.60;79.50
29237;DHT22;16266;50.866;4.398;2023-02-15T13:09:41;18.20;83.50
29237;DHT22;16266;50.866;4.398;2023-02-15T13:12:27;17.80;84.80
29237;DHT22;16266;50.866;4.398;2023-02-15T13:14:56;17.40;87.60
29237;DHT22;16266;50.866;4.398;2023-02-15T13:17:40;16.90;90.90
29237;DHT22;16266;50.866;4.398;2023-02-15T13:20:20;16.70;92.00
29237;DHT22;16266;50.866;4.398;2023-02-15T13:22:50;16.50;92.40
29237;DHT22;16266;50.866;4.398;2023-02-15T13:25:19;16.50;93.30
29237;DHT22;16266;50.866;4.398;2023-02-15T13:27:50;16.40;93.90
29237;DHT22;16266;50.866;4.398;2023-02-15T13:32:45;16.40;95.70
29237;DHT22;16266;50.866;4.398;2023-02-15T13:35:16;16.60;95.70
29237;DHT22;16266;50.866;4.398;2023-02-15T13:37:48;16.60;96.60
29237;DHT22;16266;50.866;4.398;2023-02-15T13:40:22;16.60;96.70
29237;DHT22;16266;50.866;4.398;2023-02-15T13:42:55;16.50;96.10
29237;DHT22;16266;50.866;4.398;2023-02-15T13:48:47;16.30;97.10
29237;DHT22;16266;50.866;4.398;2023-02-15T13:54:27;16.10;97.80
29237;DHT22;16266;50.866;4.398;2023-02-15T14:06:02;15.70;98.90
29237;DHT22;16266;50.866;4.398;2023-02-15T14:11:30;15.70;99.90
29237;DHT22;16266;50.866;4.398;2023-02-15T14:19:35;16.00;99.70
29237;DHT22;16266;50.866;4.398;2023-02-15T14:24:55;15.80;99.90
29237;DHT22;16266;50.866;4.398;2023-02-15T14:27:36;15.70;99.90
29237;DHT22;16266;50.866;4.398;2023-02-15T14:30:15;15.60;99.90
29237;DHT22;16266;50.866;4.398;2023-02-15T14:32:48;15.40;99.90
29237;DHT22;16266;50.866;4.398;2023-02-15T14:35:20;15.20;99.90
29237;DHT22;16266;50.866;4.398;2023-02-15T14:38:02;15.20;99.90
29237;DHT22;16266;50.866;4.398;2023-02-15T14:43:44;14.90;99.90
29237;DHT22;16266;50.866;4.398;2023-02-15T14:48:50;14.50;99.90
29237;DHT22;16266;50.866;4.398;2023-02-15T15:04:39;14.60;99.90
29237;DHT22;16266;50.866;4.398;2023-02-15T15:09:57;14.60;99.90
29237;DHT22;16266;50.866;4.398;2023-02-15T15:14:51;14.60;99.90
29237;DHT22;16266;50.866;4.398;2023-02-15T15:20:00;14.60;99.90
29237;DHT22;16266;50.866;4.398;2023-02-15T15:22:28;14.50;99.90
29237;DHT22;16266;50.866;4.398;2023-02-15T15:25:08;14.50;99.90
29237;DHT22;16266;50.866;4.398;2023-02-15T15:27:48;14.40;99.90
29237;DHT22;16266;50.866;4.398;2023-02-15T15:38:52;14.40;99.90
29237;DHT22;16266;50.866;4.398;2023-02-15T15:49:31;14.00;99.90
29237;DHT22;16266;50.866;4.398;2023-02-15T15:52:01;13.80;99.90
29237;DHT22;16266;50.866;4.398;2023-02-15T15:54:27;13.80;99.90
29237;DHT22;16266;50.866;4.398;2023-02-15T15:56:59;13.60;99.90
29237;DHT22;16266;50.866;4.398;2023-02-15T15:59:29;13.60;99.90
29237;DHT22;16266;50.866;4.398;2023-02-15T16:01:55;13.60;99.90
29237;DHT22;16266;50.866;4.398;2023-02-15T16:04:28;13.40;99.90
29237;DHT22;16266;50.866;4.398;2023-02-15T16:06:56;13.30;99.90
29237;DHT22;16266;50.866;4.398;2023-02-15T16:09:23;13.10;99.90
29237;DHT22;16266;50.866;4.398;2023-02-15T16:11:58;13.00;99.90
29237;DHT22;16266;50.866;4.398;2023-02-15T16:14:36;12.90;99.90
29237;DHT22;16266;50.866;4.398;2023-02-15T16:17:05;12.80;99.90
29237;DHT22;16266;50.866;4.398;2023-02-15T16:19:37;12.70;99.90
29237;DHT22;16266;50.866;4.398;2023-02-15T16:22:04;12.50;99.90
29237;DHT22;16266;50.866;4.398;2023-02-15T16:27:48;12.30;99.90
29237;DHT22;16266;50.866;4.398;2023-02-15T16:32:53;12.20;99.90
29237;DHT22;16266;50.866;4.398;2023-02-15T16:35:21;12.10;99.90
29237;DHT22;16266;50.866;4.398;2023-02-15T16:37:46;11.90;99.90
29237;DHT22;16266;50.866;4.398;2023-02-15T16:42:52;11.90;99.90
29237;DHT22;16266;50.866;4.398;2023-02-15T16:45:20;11.90;99.90
29237;DHT22;16266;50.866;4.398;2023-02-15T16:47:53;11.70;99.90
29237;DHT22;16266;50.866;4.398;2023-02-15T16:50:26;11.60;99.90
29237;DHT22;16266;50.866;4.398;2023-02-15T16:52:55;11.50;99.90
29237;DHT22;16266;50.866;4.398;2023-02-15T16:55:34;11.60;99.90
29237;DHT22;16266;50.866;4.398;2023-02-15T16:58:03;11.30;99.90
29237;DHT22;16266;50.866;4.398;2023-02-15T17:00:36;11.10;99.90
29237;DHT22;16266;50.866;4.398;2023-02-15T17:03:06;11.10;99.90
29237;DHT22;16266;50.866;4.398;2023-02-15T17:05:53;11.10;99.90
29237;DHT22;16266;50.866;4.398;2023-02-15T17:08:42;11.10;99.90
29237;DHT22;16266;50.866;4.398;2023-02-15T17:11:22;11.00;99.90
29237;DHT22;16266;50.866;4.398;2023-02-15T17:16:36;10.90;99.90
29237;DHT22;16266;50.866;4.398;2023-02-15T17:19:14;10.70;99.90
29237;DHT22;16266;50.866;4.398;2023-02-15T17:21:46;10.80;99.90
29237;DHT22;16266;50.866;4.398;2023-02-15T17:24:37;10.60;99.90
29237;DHT22;16266;50.866;4.398;2023-02-15T17:27:16;10.70;99.90
29237;DHT22;16266;50.866;4.398;2023-02-15T17:29:46;10.60;99.90
29237;DHT22;16266;50.866;4.398;2023-02-15T17:32:24;10.70;99.90
29237;DHT22;16266;50.866;4.398;2023-02-15T17:37:31;10.50;99.90
29237;DHT22;16266;50.866;4.398;2023-02-15T17:40:27;10.60;99.90
29237;DHT22;16266;50.866;4.398;2023-02-15T17:42:54;10.50;99.90
29237;DHT22;16266;50.866;4.398;2023-02-15T17:45:21;10.50;99.90
29237;DHT22;16266;50.866;4.398;2023-02-15T17:47:48;10.40;99.90
29237;DHT22;16266;50.866;4.398;2023-02-15T17:50:22;10.30;99.90
29237;DHT22;16266;50.866;4.398;2023-02-15T17:52:49;10.40;99.90
29237;DHT22;16266;50.866;4.398;2023-02-15T17:55:17;10.30;99.90
29237;DHT22;16266;50.866;4.398;2023-02-15T17:58:06;10.20;99.90
29237;DHT22;16266;50.866;4.398;2023-02-15T18:00:33;10.30;99.90
29237;DHT22;16266;50.866;4.398;2023-02-15T18:03:18;10.30;99.90
29237;DHT22;16266;50.866;4.398;2023-02-15T18:06:02;10.40;99.90
29237;DHT22;16266;50.866;4.398;2023-02-15T18:08:46;10.30;99.90
29237;DHT22;16266;50.866;4.398;2023-02-15T18:11:30;10.30;99.90
29237;DHT22;16266;50.866;4.398;2023-02-15T18:14:07;10.30;99.90
29237;DHT22;16266;50.866;4.398;2023-02-15T18:16:39;10.30;99.90
29237;DHT22;16266;50.866;4.398;2023-02-15T18:19:34;10.10;99.90
29237;DHT22;16266;50.866;4.398;2023-02-15T18:22:01;10.20;99.90
29237;DHT22;16266;50.866;4.398;2023-02-15T18:24:26;10.00;99.90
29237;DHT22;16266;50.866;4.398;2023-02-15T18:26:53;9.90;99.90
29237;DHT22;16266;50.866;4.398;2023-02-15T18:29:19;9.80;99.90
29237;DHT22;16266;50.866;4.398;2023-02-15T18:31:46;9.80;99.90
29237;DHT22;16266;50.866;4.398;2023-02-15T18:34:27;9.90;99.90
29237;DHT22;16266;50.866;4.398;2023-02-15T18:36:53;9.90;99.90
29237;DHT22;16266;50.866;4.398;2023-02-15T18:39:25;9.90;99.90
29237;DHT22;16266;50.866;4.398;2023-02-15T18:41:51;9.80;99.90
29237;DHT22;16266;50.866;4.398;2023-02-15T18:44:17;9.80;99.90
29237;DHT22;16266;50.866;4.398;2023-02-15T18:46:46;9.80;99.90
29237;DHT22;16266;50.866;4.398;2023-02-15T18:49:12;9.80;99.90
29237;DHT22;16266;50.866;4.398;2023-02-15T18:51:38;9.80;99.90
29237;DHT22;16266;50.866;4.398;2023-02-15T18:54:17;9.90;99.90
29237;DHT22;16266;50.866;4.398;2023-02-15T18:56:43;9.80;99.90
29237;DHT22;16266;50.866;4.398;2023-02-15T18:59:15;9.80;99.90
29237;DHT22;16266;50.866;4.398;2023-02-15T19:01:42;9.80;99.90